Time;durP1;ratioP1;P1;durP2;ratioP2;P2;SDS_P1;SDS_P2;PMS_P1;PMS_P2;Temp;Humidity;BMP_temperature;BMP_pressure;BME280_temperature;BME280_humidity;BME280_pressure;Samples;Min_cycle;Max_cycle;Signal;HPM_P1;HPM_P2
2020/12/30 00:02:09;;;;;;;13.80;5.77;;;;;;;2.71;94.04;99663.28;5089077;28;20273;-79
2020/12/30 00:04:35;;;;;;;13.00;5.20;;;;;;;2.73;93.99;99658.28;5087631;28;20270;-80
2020/12/30 00:07:00;;;;;;;12.57;6.40;;;;;;;2.71;93.96;99664.97;5108022;28;20027;-81
2020/12/30 00:09:25;;;;;;;14.73;7.03;;;;;;;2.68;94.04;99658.09;5093014;28;20031;-81
2020/12/30 00:11:51;;;;;;;11.10;6.13;;;;;;;2.70;94.27;99664.09;5100963;28;20047;-81
2020/12/30 00:14:16;;;;;;;18.03;7.90;;;;;;;2.75;94.19;99660.06;5089687;28;20378;-81
2020/12/30 00:16:41;;;;;;;20.83;8.27;;;;;;;2.69;94.54;99662.38;5102599;28;20075;-79
2020/12/30 00:19:06;;;;;;;16.47;7.70;;;;;;;2.80;94.29;99671.22;5084842;28;20281;-80
2020/12/30 00:21:32;;;;;;;16.10;8.38;;;;;;;2.75;94.08;99677.81;5092404;28;20134;-81
2020/12/30 00:23:57;;;;;;;16.60;7.33;;;;;;;2.71;94.52;99675.09;5102882;28;20028;-80
2020/12/30 00:26:22;;;;;;;17.63;8.60;;;;;;;2.73;94.45;99673.47;5092612;28;20273;-81
2020/12/30 00:28:47;;;;;;;18.53;8.27;;;;;;;2.79;94.34;99673.69;5080777;28;20032;-81
2020/12/30 00:31:13;;;;;;;21.27;9.17;;;;;;;2.76;94.53;99668.53;5086086;28;20372;-80
2020/12/30 00:33:38;;;;;;;13.75;7.65;;;;;;;2.89;93.88;99664.72;5094648;28;20070;-80
2020/12/30 00:36:04;;;;;;;17.52;8.32;;;;;;;2.82;93.90;99671.28;5097731;28;20023;-81
2020/12/30 00:38:30;;;;;;;15.45;8.20;;;;;;;2.87;93.79;99662.16;5085699;28;20049;-80
2020/12/30 00:40:55;;;;;;;22.90;9.07;;;;;;;2.77;93.93;99662.63;5107691;28;20115;-80
2020/12/30 00:43:20;;;;;;;18.77;10.50;;;;;;;2.80;93.76;99662.75;5099661;28;20296;-80
2020/12/30 00:45:45;;;;;;;19.83;9.70;;;;;;;2.79;94.01;99666.94;5112770;28;20102;-80
2020/12/30 00:48:11;;;;;;;23.50;10.13;;;;;;;2.79;94.06;99669.50;5092488;28;20405;-80
2020/12/30 00:50:36;;;;;;;23.43;10.80;;;;;;;2.81;94.15;99662.78;5112300;28;20276;-81
2020/12/30 00:53:01;;;;;;;21.33;10.37;;;;;;;2.75;94.03;99657.50;5116217;28;20488;-79
2020/12/30 00:55:26;;;;;;;22.00;11.15;;;;;;;2.69;94.48;99669.97;5086705;28;20035;-80
2020/12/30 00:57:52;;;;;;;22.10;10.90;;;;;;;2.66;94.93;99666.47;5092433;28;20095;-80
2020/12/30 01:00:17;;;;;;;25.83;12.00;;;;;;;2.71;94.85;99665.81;5088991;28;20274;-80
2020/12/30 01:02:43;;;;;;;27.38;12.10;;;;;;;2.63;94.81;99676.50;5094915;28;20032;-80
2020/12/30 01:05:08;;;;;;;22.77;11.55;;;;;;;2.64;94.89;99675.69;5092911;28;20027;-79
2020/12/30 01:07:34;;;;;;;25.60;11.88;;;;;;;2.61;95.26;99673.91;5102690;28;20055;-80
2020/12/30 01:09:59;;;;;;;23.57;12.23;;;;;;;2.58;95.38;99678.84;5085841;28;20027;-80
2020/12/30 01:12:24;;;;;;;25.30;11.73;;;;;;;2.62;95.36;99672.25;5092913;28;20289;-80
2020/12/30 01:14:50;;;;;;;23.90;12.07;;;;;;;2.58;95.58;99678.84;5094813;28;20027;-79
2020/12/30 01:17:15;;;;;;;29.07;12.40;;;;;;;2.62;95.44;99687.47;5110779;28;20276;-81
2020/12/30 01:19:40;;;;;;;25.25;11.98;;;;;;;2.61;95.69;99693.34;5081142;28;20039;-80
2020/12/30 01:22:05;;;;;;;22.03;11.67;;;;;;;2.61;95.38;99693.34;5108089;28;20023;-80
2020/12/30 01:24:31;;;;;;;23.50;11.35;;;;;;;2.60;95.73;99706.78;5087602;28;20024;-79
2020/12/30 01:26:56;;;;;;;22.57;11.47;;;;;;;2.61;95.67;99708.53;5101108;28;20089;-80
2020/12/30 01:29:22;;;;;;;30.13;12.80;;;;;;;2.66;95.83;99707.91;5093471;28;20269;-80
2020/12/30 01:31:47;;;;;;;22.57;11.63;;;;;;;2.57;95.61;99709.22;5091225;28;20041;-80
2020/12/30 01:34:12;;;;;;;25.70;11.65;;;;;;;2.55;95.95;99713.38;5091551;28;20030;-80
2020/12/30 01:36:38;;;;;;;25.15;11.30;;;;;;;2.61;95.58;99714.47;5087896;28;20560;-79
2020/12/30 01:39:04;;;;;;;25.45;11.68;;;;;;;2.57;96.03;99711.75;5090836;28;20031;-80
2020/12/30 01:41:30;;;;;;;29.47;12.57;;;;;;;2.53;95.64;99715.84;5088447;28;20016;-80
2020/12/30 01:44:08;;;;;;;29.73;12.35;;;;;;;2.52;95.52;99716.66;5099941;28;20071;-79
2020/12/30 01:46:42;;;;;;;27.73;12.67;;;;;;;2.50;95.53;99721.66;5099347;28;20032;-80
2020/12/30 01:49:17;;;;;;;27.73;11.97;;;;;;;2.47;95.77;99721.56;5092616;28;20020;-79
2020/12/30 01:51:42;;;;;;;22.23;11.07;;;;;;;2.54;95.14;99721.78;5086657;28;20024;-80
2020/12/30 01:54:10;;;;;;;21.23;11.30;;;;;;;2.41;95.21;99731.47;5112903;28;20212;-79
2020/12/30 01:56:36;;;;;;;24.00;11.03;;;;;;;2.33;95.39;99731.97;5090854;28;20503;-80
2020/12/30 01:59:11;;;;;;;17.75;9.90;;;;;;;2.32;95.05;99735.31;5116688;28;20054;-80
2020/12/30 02:01:41;;;;;;;21.05;10.90;;;;;;;2.24;95.23;99732.47;5101203;28;20032;-81
2020/12/30 02:04:09;;;;;;;23.27;11.23;;;;;;;2.19;95.54;99739.03;5109959;28;20020;-80
2020/12/30 02:06:36;;;;;;;21.43;10.90;;;;;;;2.14;95.59;99743.91;5095968;28;20020;-80
2020/12/30 02:09:04;;;;;;;23.87;10.80;;;;;;;2.26;95.30;99748.59;5087121;28;20032;-79
2020/12/30 02:11:30;;;;;;;19.37;9.43;;;;;;;2.11;95.31;99742.94;5089002;28;20042;-79
2020/12/30 02:14:13;;;;;;;21.20;9.50;;;;;;;2.06;95.42;99752.03;5103348;28;20028;-79
2020/12/30 02:16:57;;;;;;;19.30;9.90;;;;;;;2.05;95.70;99740.16;5101729;28;20176;-80
2020/12/30 02:19:23;;;;;;;21.63;9.83;;;;;;;2.06;96.09;99742.75;5082673;28;20031;-79
2020/12/30 02:21:51;;;;;;;22.05;9.10;;;;;;;2.08;96.06;99750.41;5085010;28;20027;-79
2020/12/30 02:24:26;;;;;;;20.50;10.00;;;;;;;2.09;96.34;99747.94;5110594;28;20083;-79
2020/12/30 02:26:52;;;;;;;20.00;8.97;;;;;;;2.16;96.77;99744.84;5108858;28;20035;-79
2020/12/30 02:29:17;;;;;;;14.30;7.38;;;;;;;2.25;96.54;99749.41;5084549;28;20019;-79
2020/12/30 02:31:42;;;;;;;14.63;7.30;;;;;;;2.25;96.73;99749.41;5086333;28;20031;-80
2020/12/30 02:34:08;;;;;;;17.45;8.32;;;;;;;2.32;96.97;99748.84;5085280;28;20266;-80
2020/12/30 02:36:33;;;;;;;16.90;9.40;;;;;;;2.35;96.63;99751.50;5090950;28;20035;-79
2020/12/30 02:38:58;;;;;;;19.30;9.20;;;;;;;2.33;96.56;99750.59;5089303;28;20016;-81
2020/12/30 02:41:23;;;;;;;19.17;9.20;;;;;;;2.33;96.61;99750.59;5090234;28;20401;-80
2020/12/30 02:43:49;;;;;;;16.23;8.57;;;;;;;2.26;96.42;99741.00;5092509;28;20032;-80
2020/12/30 02:46:14;;;;;;;17.03;8.27;;;;;;;2.36;96.73;99745.63;5104577;28;20278;-79
2020/12/30 02:48:39;;;;;;;21.58;7.93;;;;;;;2.32;96.68;99740.38;5093240;28;20274;-79
2020/12/30 02:51:05;;;;;;;16.00;6.73;;;;;;;2.26;96.71;99746.06;5092293;28;20059;-79
2020/12/30 02:53:31;;;;;;;14.13;6.63;;;;;;;2.22;96.54;99744.22;5085685;28;20266;-79
2020/12/30 02:55:56;;;;;;;17.10;7.18;;;;;;;2.16;96.26;99746.50;5090407;28;20035;-80
2020/12/30 02:58:22;;;;;;;13.33;5.40;;;;;;;2.25;96.49;99749.41;5082895;28;20028;-79
2020/12/30 03:00:47;;;;;;;10.32;4.63;;;;;;;2.27;96.25;99747.78;5085625;28;20278;-79
2020/12/30 03:03:12;;;;;;;8.73;4.07;;;;;;;2.33;96.38;99750.59;5081141;28;20126;-79
2020/12/30 03:05:37;;;;;;;8.07;4.33;;;;;;;2.35;96.29;99753.19;5084452;28;20258;-79
2020/12/30 03:08:03;;;;;;;8.63;4.43;;;;;;;2.29;96.36;99760.53;5084431;28;20024;-80
2020/12/30 03:10:28;;;;;;;12.07;3.97;;;;;;;2.24;96.52;99765.41;5091126;28;20165;-79
2020/12/30 03:12:53;;;;;;;8.80;4.13;;;;;;;2.21;96.41;99767.81;5081268;28;20055;-80
2020/12/30 03:15:18;;;;;;;7.88;3.42;;;;;;;2.19;96.59;99764.38;5081719;28;20020;-79
2020/12/30 03:17:44;;;;;;;8.23;3.70;;;;;;;2.21;96.57;99762.75;5103224;28;20028;-80
2020/12/30 03:20:09;;;;;;;8.40;3.20;;;;;;;2.25;96.61;99767.13;5102816;28;20273;-80
2020/12/30 03:22:34;;;;;;;5.67;2.97;;;;;;;2.25;96.91;99769.66;5093361;28;20055;-79
2020/12/30 03:25:00;;;;;;;4.88;2.90;;;;;;;2.21;96.90;99767.81;5089879;28;20269;-80
2020/12/30 03:27:25;;;;;;;8.23;2.88;;;;;;;2.22;96.61;99767.00;5084012;28;20447;-80
2020/12/30 03:29:50;;;;;;;6.15;2.72;;;;;;;2.27;96.95;99775.66;5090978;28;20459;-79
2020/12/30 03:32:15;;;;;;;6.93;2.20;;;;;;;2.33;97.03;99781.00;5092673;28;20396;-80
2020/12/30 03:34:41;;;;;;;6.90;2.57;;;;;;;2.38;97.04;99784.56;5090603;28;20404;-79
2020/12/30 03:37:06;;;;;;;4.77;2.40;;;;;;;2.41;96.98;99782.16;5083364;28;20293;-79
2020/12/30 03:39:31;;;;;;;4.23;2.33;;;;;;;2.54;97.06;99782.59;5091328;28;20031;-80
2020/12/30 03:41:56;;;;;;;6.63;2.10;;;;;;;2.52;96.86;99780.03;5091196;28;20261;-79
2020/12/30 03:44:22;;;;;;;7.17;2.10;;;;;;;2.59;97.01;99781.13;5085388;28;20034;-79
2020/12/30 03:46:47;;;;;;;6.23;2.20;;;;;;;2.69;97.03;99783.22;5095192;28;20272;-79
2020/12/30 03:49:12;;;;;;;6.30;2.50;;;;;;;2.73;96.82;99782.53;5107212;28;20150;-80
2020/12/30 03:51:37;;;;;;;5.60;1.90;;;;;;;2.72;96.79;99783.31;5095187;28;20043;-79
2020/12/30 03:54:03;;;;;;;6.20;2.07;;;;;;;2.72;96.79;99783.31;5097091;28;20292;-81
2020/12/30 03:56:29;;;;;;;4.82;1.92;;;;;;;2.65;96.54;99782.22;5114405;28;20035;-80
2020/12/30 03:58:54;;;;;;;6.07;1.92;;;;;;;2.62;96.40;99782.13;5081866;28;20052;-80
2020/12/30 04:01:19;;;;;;;4.72;2.05;;;;;;;2.59;96.12;99781.13;5084194;28;20407;-80
2020/12/30 04:03:45;;;;;;;3.23;1.77;;;;;;;2.63;96.29;99777.91;5086904;28;20050;-80
2020/12/30 04:06:10;;;;;;;5.73;1.87;;;;;;;2.54;96.13;99775.00;5097789;28;20039;-80
2020/12/30 04:08:35;;;;;;;5.00;2.35;;;;;;;2.57;96.52;99780.19;5085423;28;20501;-80
2020/12/30 04:11:00;;;;;;;6.83;2.70;;;;;;;2.58;96.58;99781.91;5108573;28;20060;-80
2020/12/30 04:13:26;;;;;;;3.93;2.30;;;;;;;2.59;96.74;99776.91;5085857;28;20031;-80
2020/12/30 04:15:51;;;;;;;9.93;2.20;;;;;;;2.66;97.17;99778.03;5113310;28;20032;-80
2020/12/30 04:18:16;;;;;;;5.47;2.07;;;;;;;2.64;96.93;99780.50;5085156;28;20316;-80
2020/12/30 04:20:41;;;;;;;14.00;4.97;;;;;;;2.67;97.33;99782.28;5081893;28;20871;-79
2020/12/30 04:23:07;;;;;;;7.77;1.90;;;;;;;2.70;97.13;99777.34;5090907;28;20043;-80
2020/12/30 04:25:32;;;;;;;6.83;2.13;;;;;;;2.82;96.97;99780.31;5089316;28;20296;-80
2020/12/30 04:27:57;;;;;;;6.23;1.73;;;;;;;2.62;96.66;99784.66;5097918;28;20035;-80
2020/12/30 04:30:22;;;;;;;6.00;2.00;;;;;;;2.68;96.55;99789.09;5116473;28;20277;-80
2020/12/30 04:32:49;;;;;;;5.20;1.83;;;;;;;2.57;96.50;99791.19;5087819;28;20028;-80
2020/12/30 04:35:14;;;;;;;4.70;2.00;;;;;;;2.56;96.52;99793.66;5089616;28;20031;-80
2020/12/30 04:37:39;;;;;;;8.60;2.10;;;;;;;2.64;96.43;99790.66;5094972;28;20020;-80
2020/12/30 04:40:06;;;;;;;4.10;1.90;;;;;;;2.56;96.59;99783.53;5088417;28;20274;-79
2020/12/30 04:42:35;;;;;;;3.10;1.80;;;;;;;2.59;96.53;99792.13;5091829;28;20024;-80
2020/12/30 04:45:07;;;;;;;4.67;2.17;;;;;;;2.60;96.59;99787.91;5100931;28;20046;-79
2020/12/30 04:47:32;;;;;;;7.83;1.90;;;;;;;2.71;97.23;99795.13;5086610;28;20043;-78
2020/12/30 04:49:59;;;;;;;3.28;1.83;;;;;;;2.73;97.05;99801.13;5092935;28;20020;-80
2020/12/30 04:52:27;;;;;;;5.13;1.97;;;;;;;2.86;96.75;99801.59;5097479;28;20039;-81
2020/12/30 04:54:52;;;;;;;5.50;2.20;;;;;;;2.92;96.79;99797.59;5091045;28;20035;-80
2020/12/30 04:57:35;;;;;;;5.75;2.10;;;;;;;2.96;96.60;99799.47;5093705;28;20027;-79
2020/12/30 05:00:05;;;;;;;8.60;2.70;;;;;;;2.96;96.61;99803.69;5093143;28;20062;-80
2020/12/30 05:02:35;;;;;;;5.73;2.23;;;;;;;3.08;96.61;99799.91;5093431;28;20472;-79
2020/12/30 05:05:01;;;;;;;8.57;2.57;;;;;;;3.08;96.40;99799.91;5107852;28;20080;-80
2020/12/30 05:07:28;;;;;;;7.22;2.42;;;;;;;3.07;96.49;99798.19;5081919;28;20020;-79
2020/12/30 05:09:56;;;;;;;6.43;2.40;;;;;;;3.12;96.71;99796.66;5111113;28;20055;-80
2020/12/30 05:12:23;;;;;;;7.13;2.70;;;;;;;3.08;96.58;99804.97;5106399;28;20043;-80
2020/12/30 05:14:48;;;;;;;10.73;2.70;;;;;;;3.11;96.87;99800.00;5094964;28;20043;-79
2020/12/30 05:17:14;;;;;;;6.15;2.72;;;;;;;3.18;96.51;99805.31;5103662;28;20097;-80
2020/12/30 05:19:42;;;;;;;7.63;3.07;;;;;;;3.17;96.79;99803.59;5103632;28;20027;-80
2020/12/30 05:22:14;;;;;;;6.20;2.27;;;;;;;3.18;96.77;99797.69;5094394;28;20153;-80
2020/12/30 05:24:39;;;;;;;6.70;2.70;;;;;;;3.25;96.60;99809.78;5093301;28;20027;-79
2020/12/30 05:27:04;;;;;;;5.87;2.50;;;;;;;3.22;96.74;99812.22;5090402;28;20024;-80
2020/12/30 05:29:30;;;;;;;4.70;2.55;;;;;;;3.20;96.70;99813.84;5086058;28;20024;-80
2020/12/30 05:31:56;;;;;;;9.83;2.93;;;;;;;3.15;96.33;99806.06;5085486;28;20152;-80
2020/12/30 05:34:23;;;;;;;5.10;2.63;;;;;;;3.20;96.59;99803.69;5092715;28;20262;-80
2020/12/30 05:36:50;;;;;;;5.27;2.70;;;;;;;3.12;96.65;99811.91;5111234;28;20019;-80
2020/12/30 05:39:29;;;;;;;7.23;3.03;;;;;;;3.17;96.86;99813.72;5087744;28;20023;-81
2020/12/30 05:42:17;;;;;;;7.27;2.87;;;;;;;3.13;96.86;99818.69;5111175;28;20032;-80
2020/12/30 05:44:50;;;;;;;8.80;3.10;;;;;;;3.20;96.96;99824.84;5081073;28;20082;-80
2020/12/30 05:47:24;;;;;;;6.73;3.03;;;;;;;3.31;97.06;99835.41;5089641;28;20020;-79
2020/12/30 05:49:52;;;;;;;5.63;3.20;;;;;;;3.36;96.95;99842.38;5094148;28;20484;-80
2020/12/30 05:52:21;;;;;;;11.53;3.43;;;;;;;3.28;96.75;99835.31;5088987;28;20052;-80
2020/12/30 05:55:02;;;;;;;8.10;4.70;;;;;;;3.22;97.10;99837.59;5094411;28;20031;-80
2020/12/30 05:57:31;;;;;;;7.67;4.37;;;;;;;3.26;96.96;99829.31;5104357;28;20118;-80
2020/12/30 06:00:09;;;;;;;8.30;4.17;;;;;;;3.28;97.04;99841.25;5091881;28;20111;-80
2020/12/30 06:02:39;;;;;;;8.40;4.67;;;;;;;3.29;96.86;99834.50;5108942;28;20031;-80
2020/12/30 06:05:15;;;;;;;8.20;4.93;;;;;;;3.36;96.73;99831.38;5085558;28;20114;-80
2020/12/30 06:07:45;;;;;;;8.03;5.23;;;;;;;3.46;96.95;99835.09;5106405;28;20051;-80
2020/12/30 06:10:13;;;;;;;10.93;5.93;;;;;;;3.37;96.77;99820.41;5111045;28;20028;-80
2020/12/30 06:12:47;;;;;;;10.20;5.70;;;;;;;3.38;96.81;99822.13;5085514;28;20065;-80
2020/12/30 06:15:23;;;;;;;13.50;7.20;;;;;;;3.36;97.02;99822.06;5094811;28;20119;-79
2020/12/30 06:18:00;;;;;;;14.90;7.53;;;;;;;3.38;96.81;99827.22;5107668;28;20032;-80
2020/12/30 06:20:39;;;;;;;13.83;7.97;;;;;;;3.42;97.05;99834.97;5109454;28;20051;-80
2020/12/30 06:23:12;;;;;;;19.27;8.27;;;;;;;3.37;96.89;99836.50;5102968;28;20390;-79
2020/12/30 06:25:42;;;;;;;15.53;8.77;;;;;;;3.41;97.08;99840.00;5082767;28;20082;-79
2020/12/30 06:28:14;;;;;;;15.50;8.83;;;;;;;3.36;97.03;99838.97;5088513;28;20495;-80
2020/12/30 06:30:42;;;;;;;16.90;9.10;;;;;;;3.37;97.03;99839.03;5077738;28;20032;-78
2020/12/30 06:33:08;;;;;;;15.70;7.87;;;;;;;3.31;97.17;99843.91;5082543;28;20027;-80
2020/12/30 06:35:35;;;;;;;14.00;7.50;;;;;;;3.32;97.24;99852.38;5104776;28;20020;-80
2020/12/30 06:38:19;;;;;;;12.27;7.00;;;;;;;3.37;97.26;99864.41;5111958;28;20111;-81
2020/12/30 06:41:04;;;;;;;15.83;7.33;;;;;;;3.37;97.04;99866.97;5104105;28;20027;-80
2020/12/30 06:43:35;;;;;;;14.63;6.77;;;;;;;3.41;96.95;99888.25;5103675;28;20024;-80
2020/12/30 06:46:00;;;;;;;11.10;6.07;;;;;;;3.49;96.86;99891.91;5100485;28;20020;-80
2020/12/30 06:48:26;;;;;;;9.48;5.15;;;;;;;3.51;96.62;99895.38;5107709;28;20419;-79
2020/12/30 06:50:51;;;;;;;10.05;4.28;;;;;;;3.51;96.20;99884.34;5092055;28;20036;-80
2020/12/30 06:53:26;;;;;;;5.00;2.50;;;;;;;3.56;95.73;99890.47;5111210;28;20709;-79
2020/12/30 06:55:52;;;;;;;7.97;2.50;;;;;;;3.55;95.47;99894.66;5105991;28;20027;-80
2020/12/30 06:58:43;;;;;;;7.18;2.55;;;;;;;3.47;95.69;99900.28;5096115;28;20103;-80
2020/12/30 07:01:10;;;;;;;5.60;2.43;;;;;;;3.51;95.81;99895.38;5083194;28;20019;-80
2020/12/30 07:03:35;;;;;;;6.10;2.73;;;;;;;3.53;95.46;99900.50;5105056;28;20027;-80
2020/12/30 07:06:34;;;;;;;9.87;3.57;;;;;;;3.49;95.94;99907.16;5088702;28;20084;-79
2020/12/30 07:09:03;;;;;;;9.30;3.50;;;;;;;3.46;95.94;99904.50;5113740;28;20266;-80
2020/12/30 07:11:49;;;;;;;8.47;3.53;;;;;;;3.44;96.11;99906.13;5101336;28;20091;-79
2020/12/30 07:14:16;;;;;;;9.80;3.60;;;;;;;3.44;96.56;99918.81;5085050;28;20027;-79
2020/12/30 07:17:02;;;;;;;10.40;4.90;;;;;;;3.42;96.61;99923.84;5084926;28;20082;-80
2020/12/30 07:19:29;;;;;;;7.07;3.63;;;;;;;3.40;96.96;99924.59;5081903;28;20481;-80
2020/12/30 07:21:58;;;;;;;8.43;4.13;;;;;;;3.57;96.94;99930.28;5108727;28;20028;-79
2020/12/30 07:24:24;;;;;;;7.57;3.93;;;;;;;3.53;96.77;99925.91;5103379;28;20090;-80
2020/12/30 07:26:50;;;;;;;;;;;;;;;3.57;96.79;99928.59;5079572;28;20024;-80
2020/12/30 07:29:16;;;;;;;6.25;2.53;;;;;;;3.58;96.79;99934.56;5090096;28;19912;-80
2020/12/30 07:31:46;;;;;;;9.25;3.30;;;;;;;3.53;96.76;99931.84;5087758;28;20035;-80
2020/12/30 07:34:17;;;;;;;7.23;2.93;;;;;;;3.53;96.43;99930.97;5090261;28;20024;-80
2020/12/30 07:36:44;;;;;;;5.93;2.70;;;;;;;3.52;96.54;99940.25;5091390;28;20024;-81
2020/12/30 07:39:09;;;;;;;5.47;2.20;;;;;;;3.45;96.41;99938.31;5108934;28;20038;-80
2020/12/30 07:41:43;;;;;;;5.63;2.17;;;;;;;3.44;96.37;99950.13;5106086;28;20103;-79
2020/12/30 07:44:08;;;;;;;4.30;2.30;;;;;;;3.40;96.48;99953.38;5084811;28;20286;-79
2020/12/30 07:46:33;;;;;;;7.53;2.13;;;;;;;3.35;96.28;99954.88;5086485;28;20081;-79
2020/12/30 07:49:09;;;;;;;3.23;2.10;;;;;;;3.32;96.58;99961.53;5104043;28;20302;-79
2020/12/30 07:51:34;;;;;;;6.33;1.83;;;;;;;3.29;96.48;99957.19;5090166;28;20027;-79
2020/12/30 07:54:00;;;;;;;5.85;2.35;;;;;;;3.29;96.30;99963.94;5085416;28;20529;-80
2020/12/30 07:56:26;;;;;;;8.07;2.47;;;;;;;3.24;96.40;99971.34;5089565;28;20039;-79
2020/12/30 07:58:52;;;;;;;4.97;2.20;;;;;;;3.22;96.63;99977.16;5105099;28;20028;-79
2020/12/30 08:01:18;;;;;;;3.85;2.33;;;;;;;3.18;96.64;99983.81;5107614;28;20031;-79
2020/12/30 08:03:43;;;;;;;;;;;;;;;3.20;96.77;99986.41;5088871;28;20108;-79
2020/12/30 08:06:09;;;;;;;5.03;2.17;;;;;;;3.20;96.72;99986.41;5106681;28;20357;-79
2020/12/30 08:08:34;;;;;;;4.88;2.60;;;;;;;3.26;96.69;99991.75;5089373;28;20034;-80
2020/12/30 08:10:59;;;;;;;7.20;2.97;;;;;;;3.29;96.79;99989.31;5105842;28;20086;-79
2020/12/30 08:13:25;;;;;;;9.33;3.33;;;;;;;3.37;96.77;99990.47;5091385;28;20293;-78
2020/12/30 08:15:53;;;;;;;6.73;3.23;;;;;;;3.42;96.83;99988.97;5090890;28;20027;-79
2020/12/30 08:18:19;;;;;;;8.30;3.27;;;;;;;3.41;96.69;99997.41;5088238;28;20289;-78
2020/12/30 08:20:44;;;;;;;7.55;3.25;;;;;;;3.43;96.89;99986.50;5107946;28;20028;-79
2020/12/30 08:23:10;;;;;;;8.10;3.53;;;;;;;3.49;96.77;99996.00;5106783;22;20094;-81
2020/12/30 08:25:35;;;;;;;9.00;3.40;;;;;;;3.50;96.86;100000.28;5076564;28;20090;-80
2020/12/30 08:28:04;;;;;;;7.80;3.27;;;;;;;3.50;96.95;100001.94;5073795;28;20514;-79
2020/12/30 08:30:32;;;;;;;12.67;3.50;;;;;;;3.61;96.38;100005.78;5065183;28;20275;-80
2020/12/30 08:33:04;;;;;;;12.03;4.30;;;;;;;3.58;96.51;100014.16;5074781;28;20032;-81
2020/12/30 08:35:37;;;;;;;9.03;3.60;;;;;;;3.60;96.31;100012.53;5083777;28;20036;-82
2020/12/30 08:38:12;;;;;;;5.20;2.80;;;;;;;3.62;96.74;100015.13;5075047;28;20480;-81
2020/12/30 08:40:40;;;;;;;5.50;3.13;;;;;;;3.74;96.55;100026.63;5091452;28;20035;-82
2020/12/30 08:43:18;;;;;;;5.17;3.10;;;;;;;3.73;96.57;100026.56;5079640;28;20086;-79
2020/12/30 08:45:50;;;;;;;6.23;3.77;;;;;;;3.77;96.56;100027.53;5089882;28;20083;-84
2020/12/30 08:48:17;;;;;;;10.13;3.80;;;;;;;3.79;96.65;100033.53;5060215;28;20493;-80
2020/12/30 08:50:44;;;;;;;5.43;3.13;;;;;;;3.80;96.45;100036.13;5092630;28;20085;-82
2020/12/30 08:53:11;;;;;;;8.90;3.50;;;;;;;3.88;96.77;100031.34;5091805;28;20151;-80
2020/12/30 08:55:36;;;;;;;6.53;3.67;;;;;;;3.93;96.76;100042.56;5062673;28;20032;-82
2020/12/30 08:58:02;;;;;;;5.47;3.63;;;;;;;4.01;96.67;100043.69;5070605;28;20061;-81
2020/12/30 09:00:37;;;;;;;5.75;3.17;;;;;;;4.11;96.64;100049.97;5078611;28;20289;-81
2020/12/30 09:03:14;;;;;;;5.93;3.07;;;;;;;4.35;95.78;100044.09;5081952;28;20099;-81
2020/12/30 09:05:41;;;;;;;7.40;2.88;;;;;;;4.47;94.71;100042.78;5079369;28;20081;-82
2020/12/30 09:08:13;;;;;;;6.57;2.10;;;;;;;4.55;93.51;100054.09;5095153;28;20024;-82
2020/12/30 09:10:39;;;;;;;6.90;1.70;;;;;;;4.54;93.04;100052.38;5069837;28;20070;-82
2020/12/30 09:13:22;;;;;;;5.00;1.98;;;;;;;4.56;93.07;100055.84;5073062;28;20020;-81
2020/12/30 09:15:56;;;;;;;8.23;2.03;;;;;;;4.57;93.27;100062.69;5075881;28;20111;-83
2020/12/30 09:18:23;;;;;;;6.63;1.80;;;;;;;4.68;93.52;100054.59;5094331;28;20104;-80
2020/12/30 09:20:48;;;;;;;3.73;2.03;;;;;;;4.69;93.41;100065.63;5091477;28;20049;-82
2020/12/30 09:23:14;;;;;;;7.32;1.85;;;;;;;4.92;93.04;100067.28;5090237;28;20107;-82
2020/12/30 09:25:40;;;;;;;3.55;1.90;;;;;;;5.05;92.57;100076.19;5075463;28;20500;-81
2020/12/30 09:28:20;;;;;;;6.07;1.70;;;;;;;4.97;92.02;100068.31;5080416;28;20515;-81
2020/12/30 09:31:05;;;;;;;5.43;1.57;;;;;;;4.97;91.84;100065.75;5076514;28;20029;-82
2020/12/30 09:33:31;;;;;;;3.47;1.00;;;;;;;4.85;91.77;100070.41;5062859;28;20473;-82
2020/12/30 09:36:09;;;;;;;3.13;1.77;;;;;;;4.85;91.37;100075.50;5073917;28;20038;-82
2020/12/30 09:38:34;;;;;;;2.13;0.90;;;;;;;4.78;91.67;100078.66;5096085;28;20028;-81
2020/12/30 09:41:00;;;;;;;4.40;1.35;;;;;;;4.81;91.22;100083.00;5070937;28;20054;-81
2020/12/30 09:43:26;;;;;;;3.63;1.08;;;;;;;4.82;91.28;100088.13;5088545;28;20378;-79
2020/12/30 09:46:00;;;;;;;5.47;1.20;;;;;;;4.78;91.67;100103.25;5095861;28;20039;-79
2020/12/30 09:48:26;;;;;;;5.50;1.20;;;;;;;4.72;92.01;100096.25;5080728;28;20027;-79
2020/12/30 09:50:52;;;;;;;8.40;1.30;;;;;;;4.77;91.91;100102.38;5072849;28;20105;-79
2020/12/30 09:53:18;;;;;;;3.57;1.13;;;;;;;4.74;92.40;100112.44;5101214;28;20122;-79
2020/12/30 09:55:47;;;;;;;4.85;1.30;;;;;;;4.67;92.37;100113.06;5081430;28;20115;-79
2020/12/30 09:58:13;;;;;;;5.37;1.50;;;;;;;4.65;92.14;100112.13;5082683;28;20035;-80
2020/12/30 10:00:39;;;;;;;5.55;1.10;;;;;;;4.67;92.61;100110.50;5089753;28;20024;-79
2020/12/30 10:03:05;;;;;;;3.55;1.20;;;;;;;4.72;92.92;100110.66;5081384;28;20056;-81
2020/12/30 10:05:30;;;;;;;6.25;1.17;;;;;;;4.78;92.63;100114.28;5077136;28;20092;-80
2020/12/30 10:07:55;;;;;;;4.50;2.15;;;;;;;4.82;92.47;100116.13;5074252;28;20109;-80
2020/12/30 10:10:21;;;;;;;5.33;1.03;;;;;;;4.79;92.52;100116.00;5075832;28;20594;-81
2020/12/30 10:12:46;;;;;;;3.08;1.00;;;;;;;4.80;92.61;100122.84;5078842;28;20025;-82
2020/12/30 10:15:12;;;;;;;3.15;1.00;;;;;;;4.79;92.40;100116.00;5080517;28;20025;-79
2020/12/30 10:17:38;;;;;;;3.10;1.20;;;;;;;4.78;92.84;100110.88;5060818;28;20024;-79
2020/12/30 10:20:06;;;;;;;1.83;0.90;;;;;;;4.77;92.96;100116.78;5075879;28;20043;-83
2020/12/30 10:22:31;;;;;;;5.47;1.33;;;;;;;4.88;93.33;100110.41;5083540;28;20070;-80
2020/12/30 10:24:57;;;;;;;3.25;1.30;;;;;;;4.92;93.01;100110.56;5075862;28;21483;-82
2020/12/30 10:27:22;;;;;;;7.25;1.58;;;;;;;5.08;93.42;100113.59;5084929;28;20028;-81
2020/12/30 10:29:48;;;;;;;3.70;1.93;;;;;;;5.22;93.24;100112.41;5086402;28;20474;-81
2020/12/30 10:32:13;;;;;;;3.80;1.67;;;;;;;5.30;92.91;100113.53;5087763;28;20279;-83
2020/12/30 10:34:38;;;;;;;3.13;1.10;;;;;;;5.45;92.58;100110.59;5092297;28;20020;-81
2020/12/30 10:37:07;;;;;;;5.38;1.35;;;;;;;5.60;92.23;100117.06;5067299;28;20269;-81
2020/12/30 10:39:33;;;;;;;5.40;1.00;;;;;;;5.78;89.81;100111.66;5084961;28;20028;-81
2020/12/30 10:41:59;;;;;;;;;;;;;;;5.84;89.87;100118.63;5063822;28;20071;-81
2020/12/30 10:44:25;;;;;;;4.90;1.10;;;;;;;5.92;89.51;100119.78;5064584;28;19920;-82
2020/12/30 10:46:50;;;;;;;5.90;1.42;;;;;;;6.01;89.99;100125.16;5066261;28;20039;-82
2020/12/30 10:49:16;;;;;;;3.70;0.90;;;;;;;6.20;87.73;100122.34;5092862;28;20036;-79
2020/12/30 10:51:45;;;;;;;2.95;0.90;;;;;;;6.09;87.65;100120.28;5095675;28;20114;-80
2020/12/30 10:54:11;;;;;;;3.60;0.80;;;;;;;5.90;88.50;100123.97;5095126;28;20109;-81
2020/12/30 10:56:36;;;;;;;3.85;1.20;;;;;;;5.68;89.23;100129.16;5066015;28;20036;-80
2020/12/30 10:59:03;;;;;;;2.80;0.80;;;;;;;5.45;90.29;100126.75;5064631;28;20024;-80
2020/12/30 11:01:28;;;;;;;4.23;1.27;;;;;;;5.48;88.95;100128.50;5069980;28;20299;-80
2020/12/30 11:03:53;;;;;;;8.60;1.13;;;;;;;5.31;89.81;100127.97;5068985;28;20114;-83
2020/12/30 11:06:19;;;;;;;2.97;0.93;;;;;;;5.27;90.13;100129.56;5072034;28;20769;-80
2020/12/30 11:09:06;;;;;;;3.00;0.80;;;;;;;5.23;90.96;100129.41;5084906;28;20364;-81
2020/12/30 11:11:32;;;;;;;2.83;1.00;;;;;;;5.20;91.57;100127.63;5091107;28;20394;-80
2020/12/30 11:13:58;;;;;;;5.13;1.25;;;;;;;5.23;92.25;100129.41;5082062;28;20029;-80
2020/12/30 11:16:23;;;;;;;2.78;1.48;;;;;;;5.29;91.83;100129.63;5069333;28;20573;-80
2020/12/30 11:18:48;;;;;;;3.70;1.67;;;;;;;5.42;91.48;100130.88;5086519;28;20036;-80
2020/12/30 11:21:13;;;;;;;5.17;2.00;;;;;;;5.45;91.56;100128.41;5083420;28;20338;-81
2020/12/30 11:23:39;;;;;;;3.63;1.17;;;;;;;5.52;90.93;100130.34;5088425;28;20050;-80
2020/12/30 11:26:05;;;;;;;4.00;1.60;;;;;;;5.45;91.07;100125.88;5090557;28;20294;-78
2020/12/30 11:28:31;;;;;;;7.57;1.60;;;;;;;5.41;90.85;100127.47;5088417;28;20024;-80
2020/12/30 11:30:56;;;;;;;5.83;1.70;;;;;;;5.47;90.64;100120.00;5082958;28;20016;-79
2020/12/30 11:33:21;;;;;;;5.97;1.57;;;;;;;5.43;90.08;100118.19;5093318;28;20028;-79
2020/12/30 11:35:47;;;;;;;4.90;1.47;;;;;;;5.44;90.40;100111.41;5084170;28;20282;-78
2020/12/30 11:38:12;;;;;;;5.35;1.50;;;;;;;5.38;90.36;100113.75;5074542;28;20017;-81
2020/12/30 11:40:40;;;;;;;5.93;1.20;;;;;;;5.46;90.65;100113.19;5085847;28;20107;-80